Time;durP1;ratioP1;P1;durP2;ratioP2;P2;SDS_P1;SDS_P2;PMS_P1;PMS_P2;Temp;Humidity;BMP_temperature;BMP_pressure;BME280_temperature;BME280_humidity;BME280_pressure;Samples;Min_cycle;Max_cycle;Signal;HPM_P1;HPM_P2
2021/06/22 00:01:06;;;;;;;1.35;0.68;;;15.80;99.90;;;;;;5051503;28;20447;-82
2021/06/22 00:03:32;;;;;;;1.65;0.55;;;15.80;99.90;;;;;;5052360;28;20543;-82
2021/06/22 00:05:58;;;;;;;1.85;1.35;;;15.80;99.90;;;;;;5052480;28;20025;-82
2021/06/22 00:08:24;;;;;;;1.08;0.60;;;15.90;99.90;;;;;;5056919;28;20079;-82
2021/06/22 00:10:50;;;;;;;2.25;0.50;;;15.70;99.90;;;;;;5058004;28;20527;-82
2021/06/22 00:13:16;;;;;;;1.13;0.30;;;15.80;99.90;;;;;;5068520;28;20029;-82
2021/06/22 00:15:42;;;;;;;0.60;0.50;;;15.70;99.90;;;;;;5052211;28;20025;-82
2021/06/22 00:18:08;;;;;;;1.48;0.40;;;15.70;99.90;;;;;;5051996;28;20025;-82
2021/06/22 00:20:34;;;;;;;2.05;0.60;;;15.60;99.90;;;;;;5070381;28;20032;-82
2021/06/22 00:23:00;;;;;;;1.05;0.40;;;15.60;99.90;;;;;;5069781;28;20112;-82
2021/06/22 00:25:26;;;;;;;0.30;0.30;;;15.50;99.90;;;;;;5062441;28;20035;-82
2021/06/22 00:27:53;;;;;;;0.38;0.38;;;15.50;99.90;;;;;;5060777;28;20066;-82
2021/06/22 00:30:20;;;;;;;0.50;0.47;;;15.50;99.90;;;;;;5063768;28;20493;-82
2021/06/22 00:32:46;;;;;;;0.73;0.45;;;15.60;99.90;;;;;;5063649;28;20104;-82
2021/06/22 00:35:13;;;;;;;1.20;0.40;;;15.70;99.90;;;;;;5071190;28;20378;-82
2021/06/22 00:37:40;;;;;;;1.58;0.57;;;15.70;99.90;;;;;;5071307;28;20021;-82
2021/06/22 00:40:06;;;;;;;1.45;0.70;;;15.60;99.90;;;;;;5063205;28;20024;-82
2021/06/22 00:42:32;;;;;;;3.60;0.50;;;15.60;99.90;;;;;;5065039;28;20548;-82
2021/06/22 00:44:59;;;;;;;1.27;0.50;;;15.60;99.90;;;;;;5074587;28;20099;-82
2021/06/22 00:47:26;;;;;;;0.50;0.50;;;15.50;99.90;;;;;;5072005;28;20029;-82
2021/06/22 00:49:53;;;;;;;1.05;0.40;;;15.70;99.90;;;;;;5060369;28;20369;-82
2021/06/22 00:52:21;;;;;;;1.35;0.52;;;15.70;99.90;;;;;;5058377;28;20033;-82
2021/06/22 00:54:47;;;;;;;1.58;0.50;;;15.50;99.90;;;;;;5063417;28;20500;-82
2021/06/22 00:57:14;;;;;;;3.50;0.47;;;15.70;99.90;;;;;;5063086;28;20025;-82
2021/06/22 00:59:40;;;;;;;2.75;0.50;;;15.70;99.90;;;;;;5063060;28;20021;-82
2021/06/22 01:02:06;;;;;;;0.50;0.50;;;15.80;99.90;;;;;;5062869;28;20078;-82
2021/06/22 01:04:33;;;;;;;1.00;0.60;;;15.50;99.90;;;;;;5064730;28;20016;-82
2021/06/22 01:07:00;;;;;;;2.42;0.57;;;15.60;99.90;;;;;;5066472;28;20024;-82
2021/06/22 01:09:30;;;;;;;0.45;0.45;;;15.60;99.90;;;;;;5063735;28;20025;-82
2021/06/22 01:12:00;;;;;;;0.82;0.60;;;15.60;99.90;;;;;;5062478;28;20078;-82
2021/06/22 01:14:27;;;;;;;0.65;0.50;;;15.70;99.90;;;;;;5063077;28;20070;-82
2021/06/22 01:16:54;;;;;;;0.50;0.50;;;15.70;99.90;;;;;;5061461;28;20028;-82
2021/06/22 01:19:20;;;;;;;0.47;0.35;;;15.60;99.90;;;;;;5070408;28;20157;-82
2021/06/22 01:21:46;;;;;;;0.30;0.30;;;15.50;99.90;;;;;;5062940;28;20017;-82
2021/06/22 01:24:19;;;;;;;0.50;0.50;;;15.50;99.90;;;;;;5062443;28;20017;-82
2021/06/22 01:26:48;;;;;;;1.50;0.50;;;15.60;99.90;;;;;;5070294;28;20013;-82
2021/06/22 01:29:14;;;;;;;0.65;0.50;;;15.40;99.90;;;;;;5060996;28;20025;-82
2021/06/22 01:31:40;;;;;;;1.58;0.47;;;15.40;99.90;;;;;;5073685;28;20056;-82
2021/06/22 01:34:06;;;;;;;1.17;0.50;;;15.40;99.90;;;;;;5060731;28;20026;-82
2021/06/22 01:36:35;;;;;;;1.55;0.40;;;15.60;99.90;;;;;;5062940;28;20021;-82
2021/06/22 01:39:03;;;;;;;1.48;1.15;;;15.40;99.90;;;;;;5068875;28;20083;-82
2021/06/22 01:41:29;;;;;;;1.77;0.45;;;15.50;99.90;;;;;;5062263;28;20031;-82
2021/06/22 01:43:54;;;;;;;1.52;1.20;;;15.50;99.90;;;;;;5062564;28;20451;-82
2021/06/22 01:46:20;;;;;;;1.92;0.60;;;15.40;99.90;;;;;;5061511;28;20401;-82
2021/06/22 01:48:46;;;;;;;1.40;0.60;;;15.40;99.90;;;;;;5057216;28;20059;-83
2021/06/22 01:51:12;;;;;;;1.05;0.50;;;15.30;99.90;;;;;;5065443;28;20484;-83
2021/06/22 01:53:38;;;;;;;0.77;0.30;;;15.30;99.90;;;;;;5065191;28;20070;-82
2021/06/22 01:56:04;;;;;;;1.10;0.50;;;15.40;99.90;;;;;;5065475;28;20021;-83
2021/06/22 01:58:30;;;;;;;0.70;0.60;;;15.40;99.90;;;;;;5057561;28;20091;-82
2021/06/22 02:00:58;;;;;;;0.82;0.40;;;15.30;99.90;;;;;;5061870;28;20488;-82
2021/06/22 02:03:27;;;;;;;1.15;0.50;;;15.30;99.90;;;;;;5068814;28;20017;-82
2021/06/22 02:05:54;;;;;;;1.35;0.70;;;15.30;99.90;;;;;;5065081;28;20021;-82
2021/06/22 02:08:19;;;;;;;2.08;0.47;;;15.20;99.90;;;;;;5059172;28;20082;-82
2021/06/22 02:10:47;;;;;;;0.68;0.40;;;15.00;99.90;;;;;;5061835;28;20112;-83
2021/06/22 02:13:14;;;;;;;0.68;0.63;;;14.80;99.90;;;;;;5066995;28;20488;-83
2021/06/22 02:15:41;;;;;;;0.80;0.47;;;14.70;99.90;;;;;;5064393;28;20063;-82
2021/06/22 02:18:09;;;;;;;0.50;0.35;;;14.80;99.90;;;;;;5065355;28;20572;-82
2021/06/22 02:20:37;;;;;;;1.25;0.38;;;14.70;99.90;;;;;;5065258;28;20392;-83
2021/06/22 02:23:04;;;;;;;0.88;0.40;;;14.70;99.90;;;;;;5053562;28;20013;-82
2021/06/22 02:25:29;;;;;;;0.95;0.50;;;14.60;99.90;;;;;;5053868;28;20032;-82
2021/06/22 02:28:04;;;;;;;0.85;0.40;;;14.60;99.90;;;;;;5053588;28;20025;-82
2021/06/22 02:30:30;;;;;;;0.82;0.70;;;14.50;99.90;;;;;;5053735;28;20100;-82
2021/06/22 02:32:56;;;;;;;1.73;0.40;;;14.30;99.90;;;;;;5053509;28;20388;-82
2021/06/22 02:35:22;;;;;;;0.60;0.43;;;14.00;99.90;;;;;;5053538;28;20489;-82
2021/06/22 02:37:51;;;;;;;1.88;0.40;;;13.70;99.90;;;;;;5053200;28;20036;-82
2021/06/22 02:40:18;;;;;;;1.48;0.93;;;13.60;99.90;;;;;;5053416;28;20029;-82
2021/06/22 02:42:44;;;;;;;2.45;0.60;;;13.70;99.90;;;;;;5056753;28;20028;-82
2021/06/22 02:45:10;;;;;;;1.52;0.50;;;13.70;99.90;;;;;;5053469;28;20384;-82
2021/06/22 02:47:36;;;;;;;3.03;0.43;;;13.50;99.90;;;;;;5053256;28;20025;-82
2021/06/22 02:50:04;;;;;;;0.57;0.57;;;13.50;99.90;;;;;;5052905;28;20515;-82
2021/06/22 02:52:30;;;;;;;1.58;0.85;;;13.70;99.90;;;;;;5053003;28;20017;-82
2021/06/22 02:54:56;;;;;;;1.05;0.38;;;13.80;99.90;;;;;;5053050;28;20036;-82
2021/06/22 02:57:21;;;;;;;1.30;0.43;;;13.90;99.90;;;;;;5053200;28;20021;-82
2021/06/22 02:59:47;;;;;;;1.15;0.60;;;14.20;99.90;;;;;;5053046;28;20032;-82
2021/06/22 03:02:13;;;;;;;1.38;0.43;;;14.20;99.90;;;;;;5053465;28;20021;-82
2021/06/22 03:04:39;;;;;;;0.30;0.30;;;14.30;99.90;;;;;;5059928;28;20036;-82
2021/06/22 03:07:05;;;;;;;2.70;0.65;;;14.40;99.90;;;;;;5072584;28;20017;-82
2021/06/22 03:09:31;;;;;;;0.35;0.35;;;14.30;99.90;;;;;;5072465;28;20035;-82
2021/06/22 03:11:57;;;;;;;0.55;0.55;;;14.30;99.90;;;;;;5070860;28;20021;-82
2021/06/22 03:14:23;;;;;;;0.70;0.50;;;14.20;99.90;;;;;;5053724;28;20504;-82
2021/06/22 03:16:50;;;;;;;2.72;0.68;;;14.20;99.90;;;;;;5052574;28;20448;-82
2021/06/22 03:19:16;;;;;;;3.35;0.63;;;14.00;99.90;;;;;;5052552;28;20044;-82
2021/06/22 03:21:44;;;;;;;0.95;0.40;;;13.80;99.90;;;;;;5052704;28;20017;-82
2021/06/22 03:24:14;;;;;;;5.70;0.77;;;13.80;99.90;;;;;;5053180;28;20070;-82
2021/06/22 03:26:40;;;;;;;5.00;0.60;;;13.80;99.90;;;;;;5052492;28;20082;-82
2021/06/22 03:29:06;;;;;;;0.65;0.55;;;13.90;99.90;;;;;;5063653;28;20032;-82
2021/06/22 03:31:32;;;;;;;1.55;0.50;;;14.00;99.90;;;;;;5072894;28;20017;-82
2021/06/22 03:33:58;;;;;;;0.82;0.60;;;14.10;99.90;;;;;;5071506;28;20024;-82
2021/06/22 03:36:24;;;;;;;1.08;0.50;;;14.20;99.90;;;;;;5072574;28;20369;-82
2021/06/22 03:38:50;;;;;;;1.17;0.50;;;14.20;99.90;;;;;;5072689;28;20468;-82
2021/06/22 03:41:16;;;;;;;1.15;0.70;;;14.20;99.90;;;;;;5071355;28;20021;-82
2021/06/22 03:43:42;;;;;;;0.60;0.35;;;14.40;99.90;;;;;;5064634;28;20033;-82
2021/06/22 03:46:08;;;;;;;0.70;0.40;;;14.40;99.90;;;;;;5052518;28;20024;-82
2021/06/22 03:48:34;;;;;;;2.22;1.15;;;14.30;99.90;;;;;;5060313;28;20552;-82
2021/06/22 03:51:00;;;;;;;1.42;0.60;;;14.30;99.90;;;;;;5059878;28;20478;-82
2021/06/22 03:53:26;;;;;;;0.60;0.40;;;14.30;99.90;;;;;;5055694;28;20401;-82
2021/06/22 03:55:52;;;;;;;1.45;0.57;;;14.20;99.90;;;;;;5064582;28;20024;-82
2021/06/22 03:58:18;;;;;;;0.40;0.40;;;14.10;99.90;;;;;;5072700;28;20032;-82
2021/06/22 04:00:44;;;;;;;0.43;0.43;;;14.00;99.90;;;;;;5072805;28;20034;-82
2021/06/22 04:03:16;;;;;;;1.77;0.60;;;14.00;99.90;;;;;;5076008;28;20025;-82
2021/06/22 04:05:42;;;;;;;0.45;0.45;;;14.00;99.90;;;;;;5073840;28;20017;-82
2021/06/22 04:08:08;;;;;;;2.05;0.65;;;14.00;99.90;;;;;;5075749;28;20063;-82
2021/06/22 04:10:34;;;;;;;2.88;0.68;;;14.00;99.90;;;;;;5061679;28;20056;-82
2021/06/22 04:13:00;;;;;;;2.28;1.00;;;13.90;99.90;;;;;;5062910;28;20035;-81
2021/06/22 04:15:26;;;;;;;0.63;0.50;;;13.90;99.90;;;;;;5074678;28;20099;-82
2021/06/22 04:17:51;;;;;;;3.15;0.50;;;13.90;99.90;;;;;;5056078;28;20056;-82
2021/06/22 04:20:18;;;;;;;0.50;0.50;;;14.00;99.90;;;;;;5055392;28;20077;-82
2021/06/22 04:22:44;;;;;;;4.20;0.95;;;14.00;99.90;;;;;;5056225;28;20021;-82
2021/06/22 04:25:10;;;;;;;3.35;0.85;;;14.00;99.90;;;;;;5065756;28;20031;-82
2021/06/22 04:27:36;;;;;;;2.75;0.80;;;14.00;99.90;;;;;;5076158;28;20017;-82
2021/06/22 04:30:04;;;;;;;3.22;0.70;;;13.90;99.90;;;;;;5075645;28;20032;-82
2021/06/22 04:32:30;;;;;;;2.05;1.08;;;13.60;99.90;;;;;;5075932;28;20480;-82
2021/06/22 04:34:55;;;;;;;2.97;1.08;;;13.50;99.90;;;;;;5075688;28;20103;-82
2021/06/22 04:37:24;;;;;;;2.85;0.80;;;13.60;99.90;;;;;;5075766;28;20039;-82
2021/06/22 04:39:50;;;;;;;2.58;0.70;;;13.70;99.90;;;;;;5064822;28;20029;-82
2021/06/22 04:42:16;;;;;;;2.15;0.80;;;13.60;99.90;;;;;;5059878;28;20032;-82
2021/06/22 04:44:42;;;;;;;6.72;1.00;;;13.70;99.90;;;;;;5075769;28;20016;-82
2021/06/22 04:47:08;;;;;;;2.97;0.73;;;13.70;99.90;;;;;;5058459;28;20025;-82
2021/06/22 04:49:34;;;;;;;1.85;0.80;;;13.80;99.90;;;;;;5055638;28;20020;-82
2021/06/22 04:52:00;;;;;;;1.92;0.60;;;13.80;99.90;;;;;;5058364;28;20051;-82
2021/06/22 04:54:26;;;;;;;2.30;0.80;;;13.60;99.90;;;;;;5057635;28;20032;-82
2021/06/22 04:56:51;;;;;;;0.70;0.70;;;13.60;99.90;;;;;;5066259;28;20024;-82
2021/06/22 04:59:18;;;;;;;1.08;0.88;;;13.60;99.90;;;;;;5084569;28;20384;-82
2021/06/22 05:01:44;;;;;;;2.50;1.17;;;13.60;99.90;;;;;;5069326;28;20027;-82
2021/06/22 05:04:11;;;;;;;4.75;0.70;;;13.60;99.90;;;;;;5063068;28;20016;-82
2021/06/22 05:06:37;;;;;;;1.98;0.57;;;13.70;99.90;;;;;;5060771;28;20115;-82
2021/06/22 05:09:03;;;;;;;1.80;0.65;;;13.90;99.90;;;;;;5057182;28;20547;-82
2021/06/22 05:11:29;;;;;;;0.80;0.50;;;13.90;99.90;;;;;;5080216;28;20107;-82
2021/06/22 05:13:56;;;;;;;3.70;0.85;;;13.90;99.90;;;;;;5074262;28;20092;-82
2021/06/22 05:16:22;;;;;;;1.05;0.70;;;14.00;99.90;;;;;;5077814;28;20082;-82
2021/06/22 05:18:48;;;;;;;1.20;0.70;;;14.10;99.90;;;;;;5080696;28;20046;-82
2021/06/22 05:21:15;;;;;;;1.85;0.70;;;14.30;99.90;;;;;;5076717;28;20025;-83
2021/06/22 05:23:41;;;;;;;2.63;0.93;;;14.40;99.90;;;;;;5073575;28;20013;-82
2021/06/22 05:26:07;;;;;;;2.17;0.77;;;14.60;99.90;;;;;;5069066;28;20396;-82
2021/06/22 05:28:33;;;;;;;1.80;0.90;;;14.80;99.90;;;;;;5080709;28;20028;-83
2021/06/22 05:30:59;;;;;;;1.73;0.57;;;14.80;99.90;;;;;;5091701;28;20476;-83
2021/06/22 05:33:24;;;;;;;1.35;1.00;;;14.90;99.90;;;;;;5077696;28;20028;-83
2021/06/22 05:35:50;;;;;;;1.48;0.88;;;15.00;99.90;;;;;;5087278;28;20032;-83
2021/06/22 05:38:16;;;;;;;1.55;1.00;;;15.00;99.90;;;;;;5065043;28;20024;-83
2021/06/22 05:40:42;;;;;;;1.17;0.70;;;15.30;99.90;;;;;;5067293;28;20024;-83
2021/06/22 05:43:08;;;;;;;1.45;0.73;;;15.50;99.90;;;;;;5068706;28;20017;-83
2021/06/22 05:45:34;;;;;;;0.70;0.70;;;15.70;99.90;;;;;;5065802;28;20079;-83
2021/06/22 05:48:00;;;;;;;1.48;0.63;;;15.70;99.90;;;;;;5061333;28;20021;-83
2021/06/22 05:50:26;;;;;;;9.40;1.13;;;15.90;99.90;;;;;;5051525;28;20040;-83
2021/06/22 05:52:53;;;;;;;5.35;0.90;;;16.20;99.90;;;;;;5053891;28;20021;-83
2021/06/22 05:55:22;;;;;;;4.13;1.27;;;16.30;99.90;;;;;;5053688;28;20029;-83
2021/06/22 05:57:56;;;;;;;2.10;0.60;;;16.60;99.90;;;;;;5053990;28;20081;-83
2021/06/22 06:00:24;;;;;;;0.93;0.70;;;16.70;99.90;;;;;;5053460;28;20060;-83
2021/06/22 06:02:50;;;;;;;15.88;2.55;;;16.60;99.90;;;;;;5053647;28;20071;-83
2021/06/22 06:05:17;;;;;;;3.28;1.17;;;16.50;99.90;;;;;;5053609;28;20033;-83
2021/06/22 06:07:44;;;;;;;36.25;4.75;;;16.60;99.90;;;;;;5053627;28;20481;-83
2021/06/22 06:10:11;;;;;;;5.82;0.88;;;16.70;99.90;;;;;;5052266;28;20374;-83
2021/06/22 06:12:37;;;;;;;1.70;0.57;;;16.80;99.90;;;;;;5053294;28;20021;-83
2021/06/22 06:15:05;;;;;;;3.00;0.70;;;16.60;99.90;;;;;;5053317;28;20029;-83
2021/06/22 06:17:31;;;;;;;3.50;0.90;;;16.80;99.90;;;;;;5053332;28;20025;-83
2021/06/22 06:19:57;;;;;;;1.85;0.60;;;16.70;99.90;;;;;;5053074;28;20049;-83
2021/06/22 06:22:23;;;;;;;1.65;0.60;;;16.50;99.90;;;;;;5053214;28;20510;-83
2021/06/22 06:24:49;;;;;;;2.40;0.68;;;16.60;99.90;;;;;;5052521;28;20373;-83
2021/06/22 06:27:17;;;;;;;1.13;0.75;;;16.60;99.90;;;;;;5053348;28;20417;-83
2021/06/22 06:30:02;;;;;;;2.53;1.35;;;16.70;99.90;;;;;;5051535;28;20392;-83
2021/06/22 06:32:28;;;;;;;0.82;0.60;;;16.60;99.90;;;;;;5053080;28;20025;-83
2021/06/22 06:34:54;;;;;;;1.90;1.27;;;16.50;99.90;;;;;;5053025;28;20112;-83
2021/06/22 06:37:20;;;;;;;1.70;0.73;;;16.60;99.90;;;;;;5053085;28;20481;-83
2021/06/22 06:39:45;;;;;;;2.92;0.75;;;16.50;99.90;;;;;;5058201;28;20028;-83
2021/06/22 06:42:11;;;;;;;3.10;0.60;;;16.60;99.90;;;;;;5072880;28;20091;-83
2021/06/22 06:44:37;;;;;;;1.15;0.75;;;16.80;99.90;;;;;;5056834;28;20047;-83
2021/06/22 06:47:05;;;;;;;1.88;0.80;;;16.80;99.90;;;;;;5052818;28;20025;-83
2021/06/22 06:49:30;;;;;;;2.50;1.00;;;16.90;99.90;;;;;;5052778;28;20060;-83
2021/06/22 06:51:56;;;;;;;1.77;0.60;;;16.90;99.90;;;;;;5064843;28;20056;-83
2021/06/22 06:54:22;;;;;;;0.63;0.63;;;17.00;99.90;;;;;;5072713;28;20033;-83
2021/06/22 06:56:48;;;;;;;1.15;0.50;;;16.90;99.90;;;;;;5072723;28;20025;-83
2021/06/22 06:59:13;;;;;;;1.95;0.80;;;16.90;99.90;;;;;;5072351;28;20028;-83
2021/06/22 07:01:39;;;;;;;0.43;0.43;;;17.00;99.90;;;;;;5072643;28;20020;-83
2021/06/22 07:04:05;;;;;;;1.02;0.50;;;17.00;99.90;;;;;;5071326;28;20392;-83
2021/06/22 07:06:31;;;;;;;2.22;0.55;;;17.00;99.90;;;;;;5072404;28;20097;-83
2021/06/22 07:08:56;;;;;;;1.73;0.50;;;17.10;99.90;;;;;;5072581;28;20093;-83
2021/06/22 07:11:22;;;;;;;2.65;0.55;;;17.20;99.90;;;;;;5072559;28;20132;-83
2021/06/22 07:13:49;;;;;;;1.05;0.85;;;17.30;99.90;;;;;;5072156;28;20090;-83
2021/06/22 07:16:16;;;;;;;1.45;0.65;;;17.50;99.90;;;;;;5072534;28;20511;-83
2021/06/22 07:18:42;;;;;;;3.00;0.82;;;17.60;99.90;;;;;;5072221;28;20040;-83
2021/06/22 07:21:08;;;;;;;2.85;0.88;;;17.70;99.90;;;;;;5072485;28;20029;-83
2021/06/22 07:23:33;;;;;;;3.22;0.43;;;18.10;99.90;;;;;;5072405;28;20033;-83
2021/06/22 07:25:59;;;;;;;0.60;0.50;;;18.50;99.90;;;;;;5072557;28;20472;-83
2021/06/22 07:28:25;;;;;;;2.47;0.90;;;18.80;99.90;;;;;;5072168;28;20024;-83
2021/06/22 07:30:51;;;;;;;1.55;0.68;;;19.00;99.90;;;;;;5072413;28;20025;-83
2021/06/22 07:33:16;;;;;;;0.73;0.60;;;19.20;99.90;;;;;;5072364;28;20060;-83
2021/06/22 07:35:43;;;;;;;0.90;0.50;;;19.30;99.90;;;;;;5073517;28;20392;-83
2021/06/22 07:38:09;;;;;;;1.17;0.57;;;19.40;99.90;;;;;;5076478;28;20500;-83
2021/06/22 07:40:35;;;;;;;2.83;0.73;;;19.40;99.90;;;;;;5074808;28;20055;-84
2021/06/22 07:43:01;;;;;;;1.38;0.60;;;19.60;99.90;;;;;;5076060;28;20074;-83
2021/06/22 07:45:27;;;;;;;1.25;0.70;;;19.80;99.90;;;;;;5076307;28;20020;-83
2021/06/22 07:47:55;;;;;;;2.60;0.90;;;19.90;99.90;;;;;;5076207;28;20056;-84
2021/06/22 07:50:21;;;;;;;2.50;1.00;;;19.70;99.90;;;;;;5076235;28;20025;-83
2021/06/22 07:52:47;;;;;;;1.95;0.70;;;19.70;99.90;;;;;;5076196;28;20120;-83
2021/06/22 07:55:13;;;;;;;3.22;0.80;;;19.70;99.90;;;;;;5076090;28;20056;-83
2021/06/22 07:57:47;;;;;;;0.95;0.65;;;19.90;99.90;;;;;;5075665;28;20024;-83
2021/06/22 08:00:20;;;;;;;1.00;0.68;;;19.70;99.90;;;;;;5075992;28;20104;-84
2021/06/22 08:02:46;;;;;;;1.20;0.80;;;19.80;99.90;;;;;;5076014;28;20052;-83
2021/06/22 08:05:12;;;;;;;2.17;0.80;;;19.90;99.90;;;;;;5075790;28;20452;-83
2021/06/22 08:07:38;;;;;;;1.17;0.60;;;19.80;99.90;;;;;;5075870;28;20035;-83
2021/06/22 08:10:04;;;;;;;2.60;0.73;;;20.00;99.90;;;;;;5075829;28;20033;-83
2021/06/22 08:12:30;;;;;;;2.40;0.70;;;19.80;99.90;;;;;;5075592;28;20036;-83
2021/06/22 08:14:55;;;;;;;1.25;0.43;;;19.70;99.90;;;;;;5075632;28;20384;-83
2021/06/22 08:17:21;;;;;;;1.45;0.70;;;19.90;99.90;;;;;;5074490;28;20037;-83
2021/06/22 08:19:47;;;;;;;1.67;0.55;;;20.40;99.90;;;;;;5075488;28;20039;-83
2021/06/22 08:22:13;;;;;;;1.67;0.65;;;20.30;99.90;;;;;;5075683;28;20029;-83
2021/06/22 08:24:38;;;;;;;2.53;1.00;;;20.40;99.90;;;;;;5075665;28;20016;-83
2021/06/22 08:27:04;;;;;;;2.30;0.73;;;20.90;99.90;;;;;;5075327;28;20020;-83
2021/06/22 08:29:30;;;;;;;1.23;0.77;;;20.80;99.90;;;;;;5075437;28;20028;-83
2021/06/22 08:31:56;;;;;;;8.75;1.40;;;21.20;99.90;;;;;;5075361;28;20032;-83
2021/06/22 08:34:22;;;;;;;2.55;1.05;;;21.40;99.90;;;;;;5075573;28;20029;-83
2021/06/22 08:36:47;;;;;;;0.98;0.60;;;22.10;99.90;;;;;;5075176;28;20036;-83
2021/06/22 08:39:13;;;;;;;0.57;0.55;;;21.90;99.90;;;;;;5075198;28;20107;-83
2021/06/22 08:41:40;;;;;;;1.02;0.60;;;21.40;99.90;;;;;;5074745;28;20078;-83
2021/06/22 08:44:11;;;;;;;1.23;0.80;;;21.30;99.90;;;;;;5075084;28;20033;-83
2021/06/22 08:46:38;;;;;;;3.08;0.95;;;21.50;99.90;;;;;;5074930;28;20028;-84
2021/06/22 08:49:05;;;;;;;0.85;0.70;;;21.50;99.90;;;;;;5074787;28;20468;-84
2021/06/22 08:51:31;;;;;;;2.95;0.93;;;21.30;99.90;;;;;;5075135;28;20103;-83
2021/06/22 08:53:58;;;;;;;1.38;0.70;;;21.10;99.90;;;;;;5074578;28;20572;-84
2021/06/22 08:56:25;;;;;;;4.07;1.00;;;21.00;99.90;;;;;;5075015;28;20369;-84
2021/06/22 08:58:51;;;;;;;1.30;0.85;;;21.10;99.90;;;;;;5073521;28;20036;-83
2021/06/22 09:01:18;;;;;;;3.17;0.63;;;21.80;99.90;;;;;;5074951;28;20105;-84
2021/06/22 09:03:43;;;;;;;0.80;0.50;;;22.00;99.90;;;;;;5074677;28;20029;-83
2021/06/22 09:06:09;;;;;;;0.60;0.50;;;22.00;99.90;;;;;;5074724;28;20563;-83
2021/06/22 09:08:35;;;;;;;0.93;0.70;;;21.90;99.90;;;;;;5074548;28;20017;-83
2021/06/22 09:11:09;;;;;;;2.50;0.80;;;21.80;99.90;;;;;;5074806;28;20020;-83
2021/06/22 09:13:36;;;;;;;0.85;0.50;;;21.60;99.90;;;;;;5074640;28;20151;-84
2021/06/22 09:16:02;;;;;;;1.15;0.47;;;21.70;99.90;;;;;;5074354;28;20078;-83
2021/06/22 09:18:36;;;;;;;0.85;0.60;;;21.70;99.90;;;;;;5074473;28;20518;-83
2021/06/22 09:21:11;;;;;;;2.15;0.77;;;21.30;99.90;;;;;;5074563;28;20496;-84
2021/06/22 09:23:39;;;;;;;1.05;0.55;;;21.10;99.90;;;;;;5074166;28;20021;-83
2021/06/22 09:26:16;;;;;;;2.47;1.38;;;21.90;99.90;;;;;;5074369;28;20144;-83
2021/06/22 09:28:42;;;;;;;2.83;0.55;;;22.60;99.90;;;;;;5074470;28;20036;-83
2021/06/22 09:31:13;;;;;;;1.55;0.80;;;22.80;99.90;;;;;;5074234;28;20111;-83
2021/06/22 09:33:45;;;;;;;2.42;0.88;;;22.70;99.90;;;;;;5074550;28;20103;-83
2021/06/22 09:36:14;;;;;;;1.08;0.50;;;22.90;99.90;;;;;;5074137;28;20029;-83
2021/06/22 09:38:41;;;;;;;2.20;0.77;;;23.10;99.90;;;;;;5073978;28;20103;-83
2021/06/22 09:41:17;;;;;;;3.28;0.60;;;22.90;99.90;;;;;;5073979;28;20024;-83
2021/06/22 09:43:50;;;;;;;1.08;0.70;;;23.10;99.90;;;;;;5074242;28;20028;-83
2021/06/22 09:46:29;;;;;;;0.68;0.47;;;22.80;99.90;;;;;;5073935;28;20400;-83
2021/06/22 09:48:56;;;;;;;0.88;0.60;;;22.50;99.90;;;;;;5073944;28;20024;-83
2021/06/22 09:51:30;;;;;;;2.75;0.55;;;22.00;99.90;;;;;;5074041;28;20028;-84
2021/06/22 09:54:11;;;;;;;0.98;0.70;;;22.10;99.90;;;;;;5073363;28;20365;-84
2021/06/22 09:56:49;;;;;;;1.38;0.70;;;22.80;99.90;;;;;;5074074;28;20048;-83
2021/06/22 09:59:15;;;;;;;0.75;0.60;;;23.10;99.90;;;;;;5072704;28;20420;-83
2021/06/22 10:01:40;;;;;;;3.03;0.73;;;23.60;99.90;;;;;;5073946;28;20021;-84
2021/06/22 10:04:27;;;;;;;1.48;0.60;;;24.30;99.90;;;;;;5073639;28;20016;-83
2021/06/22 10:06:58;;;;;;;1.83;0.60;;;24.50;99.90;;;;;;5073211;28;20028;-84
2021/06/22 10:09:31;;;;;;;0.57;0.57;;;23.70;99.90;;;;;;5073537;28;20053;-84
2021/06/22 10:12:09;;;;;;;1.10;0.55;;;23.20;99.90;;;;;;5073567;28;20407;-83
2021/06/22 10:14:38;;;;;;;1.02;0.70;;;24.00;99.90;;;;;;5073479;28;20104;-84
2021/06/22 10:17:09;;;;;;;4.18;1.23;;;25.10;99.90;;;;;;5072131;28;20039;-84
2021/06/22 10:19:36;;;;;;;0.68;0.52;;;25.70;99.90;;;;;;5073051;28;20094;-84
2021/06/22 10:22:07;;;;;;;1.80;0.70;;;26.10;99.90;;;;;;5072907;28;20020;-84
2021/06/22 10:24:35;;;;;;;0.50;0.40;;;26.40;99.90;;;;;;5073290;28;20021;-84
2021/06/22 10:27:02;;;;;;;1.17;0.50;;;25.30;99.90;;;;;;5073166;28;20047;-84
2021/06/22 10:29:31;;;;;;;0.80;0.80;;;25.10;99.90;;;;;;5073227;28;20025;-84
2021/06/22 10:31:58;;;;;;;2.25;1.00;;;31.20;99.90;;;;;;5073003;28;20078;-84
2021/06/22 10:34:24;;;;;;;3.03;1.10;;;35.10;96.80;;;;;;5073126;28;20034;-84
2021/06/22 10:36:57;;;;;;;2.28;1.15;;;36.80;90.00;;;;;;5072605;28;20047;-84
2021/06/22 10:39:39;;;;;;;1.90;1.15;;;37.30;82.10;;;;;;5072886;28;20094;-84
2021/06/22 10:42:10;;;;;;;1.33;0.82;;;36.30;79.40;;;;;;5072857;28;20427;-84
2021/06/22 10:44:44;;;;;;;2.95;0.68;;;37.90;82.00;;;;;;5072924;28;20400;-84
2021/06/22 10:47:20;;;;;;;0.73;0.68;;;31.90;77.20;;;;;;5072858;28;20033;-84
2021/06/22 10:50:22;;;;;;;0.73;0.60;;;28.50;88.60;;;;;;5071726;28;20376;-85
2021/06/22 10:53:02;;;;;;;1.25;0.55;;;26.80;96.20;;;;;;5050579;28;20051;-84
2021/06/22 10:55:28;;;;;;;0.95;0.95;;;26.10;95.70;;;;;;5050671;28;20052;-84
2021/06/22 10:57:54;;;;;;;1.30;1.20;;;30.70;94.70;;;;;;5050632;28;20041;-84
2021/06/22 11:00:20;;;;;;;1.80;1.10;;;36.20;74.30;;;;;;5050522;28;20451;-84
2021/06/22 11:03:07;;;;;;;0.80;0.80;;;34.30;66.00;;;;;;5050630;28;20037;-84
2021/06/22 11:05:41;;;;;;;0.70;0.70;;;31.00;80.00;;;;;;5050269;28;20048;-84
2021/06/22 11:08:13;;;;;;;1.20;1.10;;;29.50;86.30;;;;;;5050254;28;20171;-84
2021/06/22 11:10:39;;;;;;;0.88;0.70;;;31.40;85.70;;;;;;5050070;28;20104;-84
2021/06/22 11:13:06;;;;;;;0.73;0.73;;;30.50;87.70;;;;;;5050514;28;20044;-85
2021/06/22 11:15:49;;;;;;;2.15;0.68;;;29.30;81.50;;;;;;5050363;28;20568;-84
2021/06/22 11:18:18;;;;;;;1.02;0.68;;;28.30;90.60;;;;;;5033443;28;20111;-84
2021/06/22 11:21:06;;;;;;;2.47;0.90;;;27.90;87.10;;;;;;5033069;28;20045;-85
2021/06/22 11:24:11;;;;;;;1.52;0.50;;;26.90;90.80;;;;;;5019956;28;20072;-84
2021/06/22 11:26:45;;;;;;;1.25;0.85;;;26.70;94.40;;;;;;5050345;28;20029;-84
2021/06/22 11:29:21;;;;;;;2.17;0.82;;;26.40;95.00;;;;;;5051974;28;20037;-84
2021/06/22 11:31:53;;;;;;;1.55;0.40;;;26.20;96.60;;;;;;5052439;28;20384;-84
2021/06/22 11:34:32;;;;;;;1.48;0.70;;;25.80;96.20;;;;;;5050592;28;20067;-84
2021/06/22 11:37:07;;;;;;;1.45;0.68;;;25.90;98.90;;;;;;5052331;28;20032;-84
2021/06/22 11:39:34;;;;;;;2.67;0.60;;;26.00;98.30;;;;;;5052116;28;20421;-84
2021/06/22 11:42:12;;;;;;;0.68;0.68;;;25.70;95.40;;;;;;5052027;28;20017;-83
2021/06/22 11:45:01;;;;;;;0.82;0.57;;;25.60;95.20;;;;;;5052241;28;20152;-83
2021/06/22 11:47:28;;;;;;;1.70;0.80;;;25.70;96.70;;;;;;5052284;28;20021;-84
2021/06/22 11:49:59;;;;;;;1.20;0.60;;;25.90;96.50;;;;;;5050583;28;20079;-84
2021/06/22 11:52:42;;;;;;;1.48;0.65;;;25.30;96.10;;;;;;5052253;28;20029;-84
2021/06/22 11:55:19;;;;;;;3.08;0.50;;;25.40;98.20;;;;;;5052211;28;20452;-84
2021/06/22 11:57:53;;;;;;;2.08;0.63;;;25.70;97.00;;;;;;5051975;28;20032;-84
2021/06/22 12:00:34;;;;;;;1.08;0.73;;;25.80;96.80;;;;;;5051967;28;20025;-84
2021/06/22 12:03:02;;;;;;;0.77;0.50;;;26.00;97.30;;;;;;5051911;28;20025;-84
2021/06/22 12:05:30;;;;;;;1.52;0.60;;;25.60;96.40;;;;;;5051952;28;20032;-84
2021/06/22 12:08:01;;;;;;;2.03;0.60;;;25.40;97.50;;;;;;5051915;28;20506;-84
2021/06/22 12:10:40;;;;;;;1.05;0.60;;;25.20;98.00;;;;;;5052069;28;20080;-84
2021/06/22 12:13:06;;;;;;;0.90;0.77;;;25.20;99.50;;;;;;5051959;28;20055;-84
2021/06/22 12:15:37;;;;;;;1.00;0.80;;;25.30;99.90;;;;;;5051900;28;20538;-84
2021/06/22 12:18:04;;;;;;;0.60;0.60;;;25.40;99.90;;;;;;5051700;28;20357;-84
2021/06/22 12:20:41;;;;;;;1.35;0.70;;;25.60;99.90;;;;;;5071668;28;20526;-84
2021/06/22 12:23:10;;;;;;;2.90;0.65;;;25.70;99.10;;;;;;5073712;28;20029;-84
2021/06/22 12:25:42;;;;;;;0.88;0.80;;;27.30;98.70;;;;;;5074300;28;20035;-84
2021/06/22 12:28:09;;;;;;;1.50;0.70;;;29.10;98.40;;;;;;5075474;28;20400;-84
2021/06/22 12:30:43;;;;;;;2.72;0.70;;;29.20;94.10;;;;;;5075521;28;20025;-84
2021/06/22 12:33:08;;;;;;;0.80;0.77;;;28.60;96.30;;;;;;5075077;28;20036;-84
2021/06/22 12:35:34;;;;;;;1.85;0.60;;;28.60;97.70;;;;;;5075429;28;20032;-84
2021/06/22 12:38:11;;;;;;;0.63;0.50;;;27.80;96.50;;;;;;5075313;28;20147;-84
2021/06/22 12:40:41;;;;;;;0.82;0.60;;;26.40;97.50;;;;;;5073889;28;20443;-84
2021/06/22 12:43:06;;;;;;;;;;;25.70;99.90;;;;;;5075746;28;20032;-84
2021/06/22 12:45:32;;;;;;;1.08;0.98;;;25.30;99.90;;;;;;5074990;28;19927;-83
2021/06/22 12:47:58;;;;;;;1.23;0.60;;;25.20;99.90;;;;;;5074834;28;20017;-83
2021/06/22 12:50:29;;;;;;;1.15;0.70;;;24.80;99.50;;;;;;5075119;28;20032;-83
2021/06/22 12:52:56;;;;;;;0.57;0.55;;;24.50;99.90;;;;;;5075243;28;20115;-83